Wetterdaten: Woche 21.12.09 - 27.12.09 (KW52)
Datum Zeit Temperatur Luftfeuchte Luftdruck Niederschlag Windrichtung Wind
21.12.2009 00:00 -2,4 C 95 % 1007,6 hPa 0,2 l/m SW 6,7 km/h (2 Bft)
21.12.2009 01:00 -2,1 C 96 % 1007,9 hPa 0,0 l/m W-SW 7,6 km/h (2 Bft)
21.12.2009 02:00 -1,8 C 96 % 1008,2 hPa 0,2 l/m SW 6,3 km/h (2 Bft)
21.12.2009 03:00 -1,5 C 97 % 1008,1 hPa 0,2 l/m SW 6,1 km/h (2 Bft)
21.12.2009 04:00 -1,3 C 97 % 1007,7 hPa 0,2 l/m SW 10,2 km/h (2 Bft)
21.12.2009 05:00 -1,0 C 97 % 1007,2 hPa 0,2 l/m SW 7,5 km/h (2 Bft)
21.12.2009 06:00 -0,8 C 97 % 1007,3 hPa 0,2 l/m SW 8,4 km/h (2 Bft)
21.12.2009 07:00 -0,6 C 98 % 1007,3 hPa 0,0 l/m SW 12,4 km/h (3 Bft)
21.12.2009 08:00 -0,5 C 98 % 1007,0 hPa 0,0 l/m SW 14,8 km/h (3 Bft)
21.12.2009 09:00 -0,2 C 98 % 1006,4 hPa 0,2 l/m SW 15,0 km/h (3 Bft)
21.12.2009 10:00 0,5 C 97 % 1005,5 hPa 0,0 l/m S-SW 9,4 km/h (2 Bft)
21.12.2009 11:00 1,3 C 94 % 1004,8 hPa 0,0 l/m SO 5,2 km/h (1 Bft)
21.12.2009 12:00 1,5 C 91 % 1004,2 hPa 0,0 l/m SO 2,9 km/h (1 Bft)
21.12.2009 13:00 1,7 C 91 % 1002,4 hPa 0,0 l/m SO 2,9 km/h (1 Bft)
21.12.2009 14:00 1,6 C 89 % 1001,4 hPa 0,0 l/m SO 2,5 km/h (1 Bft)
21.12.2009 15:00 1,5 C 88 % 1000,8 hPa 0,0 l/m NO 2,9 km/h (1 Bft)
21.12.2009 16:00 0,6 C 91 % 999,9 hPa 0,0 l/m O-NO 3,3 km/h (1 Bft)
21.12.2009 17:00 0,2 C 93 % 999,3 hPa 0,0 l/m O-NO 2,5 km/h (1 Bft)
21.12.2009 18:00 -0,3 C 93 % 998,2 hPa 0,0 l/m N 1,9 km/h (1 Bft)
21.12.2009 19:00 -0,3 C 95 % 997,0 hPa 0,0 l/m N 2,0 km/h (1 Bft)
21.12.2009 20:00 0,1 C 95 % 995,8 hPa 0,0 l/m NW 4,3 km/h (1 Bft)
21.12.2009 21:00 0,6 C 93 % 994,3 hPa 0,0 l/m NW 5,5 km/h (1 Bft)
21.12.2009 22:00 0,8 C 91 % 994,2 hPa 0,0 l/m N-NW 8,7 km/h (2 Bft)
21.12.2009 23:00 0,7 C 92 % 994,2 hPa 0,0 l/m N-NO 7,1 km/h (2 Bft)
22.12.2009 00:00 0,5 C 93 % 994,2 hPa 0,0 l/m N 4,8 km/h (1 Bft)
22.12.2009 01:00 0,4 C 94 % 993,9 hPa 0,0 l/m NW 5,5 km/h (1 Bft)
22.12.2009 02:00 0,6 C 95 % 993,7 hPa 0,0 l/m NO 2,1 km/h (1 Bft)
22.12.2009 03:00 0,5 C 95 % 993,3 hPa 0,0 l/m N-NO 2,8 km/h (1 Bft)
22.12.2009 04:00 0,1 C 95 % 992,9 hPa 0,0 l/m W-NW 3,2 km/h (1 Bft)
22.12.2009 05:00 -0,1 C 96 % 992,4 hPa 0,0 l/m S-SO 4,3 km/h (1 Bft)
22.12.2009 06:00 0,2 C 96 % 992,4 hPa 0,0 l/m S-SO 3,2 km/h (1 Bft)
22.12.2009 07:00 -0,1 C 95 % 992,7 hPa 0,0 l/m SW 5,3 km/h (1 Bft)
22.12.2009 08:00 0,2 C 96 % 992,8 hPa 0,0 l/m SW 7,8 km/h (2 Bft)
22.12.2009 09:00 0,9 C 95 % 993,4 hPa 0,0 l/m SW 8,0 km/h (2 Bft)
22.12.2009 10:00 2,3 C 91 % 994,1 hPa 0,0 l/m SW 11,7 km/h (2 Bft)
22.12.2009 11:00 3,3 C 87 % 993,8 hPa 0,0 l/m S-SW 14,2 km/h (3 Bft)
22.12.2009 12:00 4,2 C 83 % 993,8 hPa 0,0 l/m SW 17,3 km/h (3 Bft)
22.12.2009 13:00 4,9 C 81 % 993,6 hPa 0,0 l/m SW 18,2 km/h (3 Bft)
22.12.2009 14:00 5,9 C 77 % 993,6 hPa 0,0 l/m SW 11,2 km/h (2 Bft)
22.12.2009 15:00 4,8 C 82 % 993,2 hPa 0,0 l/m SW 5,3 km/h (1 Bft)
22.12.2009 16:00 4,0 C 84 % 993,1 hPa 0,0 l/m W 6,3 km/h (2 Bft)
22.12.2009 17:00 3,5 C 85 % 992,3 hPa 0,0 l/m O-SO 3,3 km/h (1 Bft)
22.12.2009 18:00 2,2 C 88 % 991,8 hPa 0,0 l/m N 3,6 km/h (1 Bft)
22.12.2009 19:00 1,7 C 92 % 991,7 hPa 0,0 l/m NW 4,1 km/h (1 Bft)
22.12.2009 20:00 1,9 C 92 % 991,5 hPa 0,0 l/m NW 3,5 km/h (1 Bft)
22.12.2009 21:00 2,1 C 91 % 990,2 hPa 0,0 l/m W-NW 5,1 km/h (1 Bft)
22.12.2009 22:00 2,3 C 93 % 989,5 hPa 1,8 l/m SW 6,2 km/h (2 Bft)
22.12.2009 23:00 2,2 C 95 % 989,0 hPa 4,0 l/m W 2,3 km/h (1 Bft)
23.12.2009 00:00 2,4 C 96 % 988,9 hPa 2,6 l/m W 2,8 km/h (1 Bft)
23.12.2009 01:00 2,3 C 96 % 988,9 hPa 1,4 l/m W-SW 2,5 km/h (1 Bft)
23.12.2009 02:00 2,1 C 97 % 989,3 hPa 0,6 l/m S 5,9 km/h (2 Bft)
23.12.2009 03:00 2,3 C 98 % 989,5 hPa 1,0 l/m S-SO 5,8 km/h (1 Bft)
23.12.2009 04:00 3,2 C 98 % 990,2 hPa 1,2 l/m W 11,8 km/h (2 Bft)
23.12.2009 05:00 3,6 C 98 % 991,0 hPa 0,4 l/m W 12,6 km/h (3 Bft)
23.12.2009 06:00 2,9 C 97 % 992,7 hPa 1,0 l/m NW 15,0 km/h (3 Bft)
23.12.2009 07:00 1,5 C 96 % 994,6 hPa 0,0 l/m W-NW 7,6 km/h (2 Bft)
23.12.2009 08:00 1,3 C 97 % 997,5 hPa 0,0 l/m W-NW 8,7 km/h (2 Bft)
23.12.2009 09:00 1,3 C 96 % 998,9 hPa 0,0 l/m W 6,3 km/h (2 Bft)
23.12.2009 10:00 1,7 C 97 % 999,8 hPa 0,0 l/m SW 6,8 km/h (2 Bft)
23.12.2009 11:00 2,3 C 97 % 1000,3 hPa 0,0 l/m S-SW 9,0 km/h (2 Bft)
23.12.2009 12:00 2,7 C 95 % 1000,2 hPa 0,0 l/m S-SW 7,8 km/h (2 Bft)
23.12.2009 13:00 3,3 C 91 % 999,5 hPa 0,0 l/m NW 5,9 km/h (2 Bft)
23.12.2009 14:00 3,2 C 91 % 999,1 hPa 0,0 l/m O-NO 5,9 km/h (2 Bft)
23.12.2009 15:00 2,9 C 92 % 999,5 hPa 0,0 l/m O-SO 5,7 km/h (1 Bft)
23.12.2009 16:00 2,5 C 93 % 1000,0 hPa 0,0 l/m O 4,8 km/h (1 Bft)
23.12.2009 17:00 2,0 C 94 % 999,8 hPa 0,0 l/m O 3,7 km/h (1 Bft)
23.12.2009 18:00 1,8 C 94 % 999,3 hPa 0,0 l/m O 4,5 km/h (1 Bft)
23.12.2009 19:00 1,6 C 95 % 998,2 hPa 0,0 l/m NO 6,4 km/h (2 Bft)
23.12.2009 20:00 1,6 C 95 % 997,6 hPa 0,0 l/m NO 7,2 km/h (2 Bft)
23.12.2009 21:00 1,3 C 95 % 997,2 hPa 0,0 l/m N-NO 9,1 km/h (2 Bft)
23.12.2009 22:00 1,1 C 96 % 996,8 hPa 0,0 l/m N-NO 9,3 km/h (2 Bft)
23.12.2009 23:00 1,1 C 96 % 996,2 hPa 0,0 l/m N-NO 11,3 km/h (2 Bft)
24.12.2009 00:00 1,0 C 96 % 995,7 hPa 0,0 l/m N-NO 9,3 km/h (2 Bft)
24.12.2009 01:00 0,9 C 97 % 996,0 hPa 0,0 l/m N-NO 7,1 km/h (2 Bft)
24.12.2009 02:00 0,8 C 97 % 996,1 hPa 0,4 l/m N-NO 9,3 km/h (2 Bft)
24.12.2009 03:00 0,8 C 97 % 996,2 hPa 0,0 l/m N-NO 4,4 km/h (1 Bft)
24.12.2009 04:00 0,8 C 97 % 995,8 hPa 0,0 l/m NO 4,0 km/h (1 Bft)
24.12.2009 05:00 0,7 C 97 % 995,7 hPa 0,0 l/m NO 2,3 km/h (1 Bft)
24.12.2009 06:00 0,6 C 98 % 995,4 hPa 0,0 l/m N-NO 2,0 km/h (1 Bft)
24.12.2009 07:00 0,5 C 98 % 995,3 hPa 0,0 l/m NW 1,3 km/h (1 Bft)
24.12.2009 08:00 0,3 C 98 % 995,2 hPa 0,0 l/m N 1,9 km/h (1 Bft)
24.12.2009 09:00 0,2 C 98 % 995,6 hPa 0,0 l/m NW 2,4 km/h (1 Bft)
24.12.2009 10:00 0,4 C 98 % 995,3 hPa 0,0 l/m O-SO 3,9 km/h (1 Bft)
24.12.2009 11:00 0,6 C 98 % 994,6 hPa 0,0 l/m N-NO 2,9 km/h (1 Bft)
24.12.2009 12:00 1,3 C 98 % 994,0 hPa 0,0 l/m N-NO 5,2 km/h (1 Bft)
24.12.2009 13:00 1,7 C 97 % 993,2 hPa 0,0 l/m O-NO 5,6 km/h (1 Bft)
24.12.2009 14:00 1,9 C 96 % 992,8 hPa 0,0 l/m N 11,5 km/h (2 Bft)
24.12.2009 15:00 1,8 C 96 % 992,4 hPa 0,0 l/m N-NO 6,0 km/h (2 Bft)
24.12.2009 16:00 1,4 C 96 % 991,7 hPa 0,0 l/m N 5,7 km/h (1 Bft)
24.12.2009 17:00 0,9 C 97 % 990,6 hPa 0,0 l/m N 6,0 km/h (2 Bft)
24.12.2009 18:00 0,8 C 97 % 989,5 hPa 0,0 l/m N-NO 6,3 km/h (2 Bft)
24.12.2009 19:00 1,1 C 98 % 987,5 hPa 0,0 l/m NO 12,9 km/h (3 Bft)
24.12.2009 20:00 1,1 C 98 % 986,6 hPa 0,0 l/m N-NO 10,1 km/h (2 Bft)
24.12.2009 21:00 0,9 C 98 % 985,9 hPa 0,0 l/m N 9,9 km/h (2 Bft)
24.12.2009 22:00 0,7 C 98 % 985,5 hPa 0,0 l/m N 8,2 km/h (2 Bft)
24.12.2009 23:00 0,6 C 98 % 985,6 hPa 0,0 l/m N 4,8 km/h (1 Bft)
25.12.2009 00:00 1,0 C 98 % 986,8 hPa 0,0 l/m S-SO 7,3 km/h (2 Bft)
25.12.2009 01:00 1,5 C 98 % 987,7 hPa 0,0 l/m W-SW 15,7 km/h (3 Bft)
25.12.2009 02:00 3,1 C 97 % 989,2 hPa 0,6 l/m SW 21,4 km/h (4 Bft)
25.12.2009 03:00 3,1 C 97 % 989,4 hPa 0,0 l/m SW 20,5 km/h (4 Bft)
25.12.2009 04:00 3,5 C 99 % 989,5 hPa 0,0 l/m SW 19,7 km/h (3 Bft)
25.12.2009 05:00 3,8 C 98 % 989,5 hPa 0,0 l/m SW 13,4 km/h (3 Bft)
25.12.2009 06:00 5,0 C 98 % 989,7 hPa 0,0 l/m SW 21,3 km/h (4 Bft)
25.12.2009 07:00 6,7 C 93 % 991,2 hPa 0,0 l/m W-SW 24,7 km/h (4 Bft)
25.12.2009 08:00 7,0 C 88 % 993,3 hPa 0,0 l/m W-SW 27,4 km/h (4 Bft)
25.12.2009 09:00 6,3 C 84 % 995,5 hPa 0,0 l/m W 31,7 km/h (5 Bft)
25.12.2009 10:00 5,4 C 83 % 997,9 hPa 0,0 l/m W 24,9 km/h (4 Bft)
25.12.2009 11:00 4,6 C 83 % 999,3 hPa 0,0 l/m W 18,8 km/h (3 Bft)
25.12.2009 12:00 4,5 C 82 % 1000,4 hPa 0,0 l/m W-SW 22,1 km/h (4 Bft)
25.12.2009 13:00 4,4 C 82 % 1001,5 hPa 0,0 l/m W 22,5 km/h (4 Bft)
25.12.2009 14:00 4,1 C 82 % 1002,4 hPa 0,0 l/m W-SW 26,0 km/h (4 Bft)
25.12.2009 15:00 4,0 C 81 % 1003,2 hPa 0,0 l/m W-SW 25,7 km/h (4 Bft)
25.12.2009 16:00 3,4 C 84 % 1004,3 hPa 0,0 l/m W 23,7 km/h (4 Bft)
25.12.2009 17:00 2,5 C 85 % 1005,4 hPa 0,0 l/m W-SW 23,3 km/h (4 Bft)
25.12.2009 18:00 2,2 C 85 % 1006,5 hPa 0,0 l/m W-SW 26,4 km/h (4 Bft)
25.12.2009 19:00 1,8 C 90 % 1007,7 hPa 0,0 l/m W-SW 26,8 km/h (4 Bft)
25.12.2009 20:00 2,2 C 88 % 1008,4 hPa 0,0 l/m W-SW 27,8 km/h (4 Bft)
25.12.2009 21:00 2,2 C 85 % 1009,1 hPa 0,0 l/m W-SW 25,6 km/h (4 Bft)
25.12.2009 22:00 2,0 C 84 % 1009,9 hPa 0,0 l/m W 26,7 km/h (4 Bft)
25.12.2009 23:00 1,8 C 83 % 1010,9 hPa 0,0 l/m W 28,7 km/h (4 Bft)
26.12.2009 00:00 1,7 C 81 % 1011,7 hPa 0,0 l/m W-NW 21,8 km/h (4 Bft)
26.12.2009 01:00 1,4 C 80 % 1012,0 hPa 0,0 l/m W-SW 17,4 km/h (3 Bft)
26.12.2009 02:00 0,9 C 80 % 1012,0 hPa 0,0 l/m SW 7,9 km/h (2 Bft)
26.12.2009 03:00 -0,2 C 84 % 1012,3 hPa 0,0 l/m SW 7,1 km/h (2 Bft)
26.12.2009 04:00 -0,8 C 87 % 1012,6 hPa 0,0 l/m SW 6,3 km/h (2 Bft)
26.12.2009 05:00 -1,4 C 88 % 1012,3 hPa 0,0 l/m SW 3,2 km/h (1 Bft)
26.12.2009 06:00 -2,1 C 90 % 1012,3 hPa 0,0 l/m N 0,9 km/h (0 Bft)
26.12.2009 07:00 -3,0 C 91 % 1011,9 hPa 0,0 l/m N 0,7 km/h (0 Bft)
26.12.2009 08:00 -3,6 C 92 % 1011,6 hPa 0,0 l/m N 0,7 km/h (0 Bft)
26.12.2009 09:00 -3,4 C 95 % 1011,5 hPa 0,0 l/m N 1,1 km/h (0 Bft)
26.12.2009 10:00 -0,1 C 84 % 1011,2 hPa 0,0 l/m NW 1,3 km/h (1 Bft)
26.12.2009 11:00 1,6 C 76 % 1010,6 hPa 0,0 l/m O-SO 6,0 km/h (2 Bft)
26.12.2009 12:00 2,9 C 70 % 1009,5 hPa 0,0 l/m O-NO 11,8 km/h (2 Bft)
26.12.2009 13:00 3,6 C 64 % 1008,7 hPa 0,0 l/m O-NO 12,9 km/h (3 Bft)
26.12.2009 14:00 3,5 C 63 % 1008,4 hPa 0,0 l/m O-NO 11,8 km/h (2 Bft)
26.12.2009 15:00 2,5 C 69 % 1008,1 hPa 0,0 l/m O-NO 4,9 km/h (1 Bft)
26.12.2009 16:00 0,4 C 79 % 1007,9 hPa 0,0 l/m N-NO 3,1 km/h (1 Bft)
26.12.2009 17:00 -0,5 C 83 % 1008,0 hPa 0,0 l/m N 2,9 km/h (1 Bft)
26.12.2009 18:00 -1,0 C 87 % 1008,1 hPa 0,0 l/m N-NW 4,3 km/h (1 Bft)
26.12.2009 19:00 -1,2 C 90 % 1008,3 hPa 0,0 l/m N-NW 3,5 km/h (1 Bft)
26.12.2009 20:00 -1,5 C 90 % 1008,4 hPa 0,0 l/m N 0,4 km/h (0 Bft)
26.12.2009 21:00 -2,1 C 91 % 1008,4 hPa 0,0 l/m N 0,5 km/h (0 Bft)
26.12.2009 22:00 -2,6 C 92 % 1008,7 hPa 0,0 l/m N 0,7 km/h (0 Bft)
26.12.2009 23:00 -3,2 C 92 % 1008,9 hPa 0,0 l/m N 0,0 km/h (0 Bft)
27.12.2009 00:00 -3,4 C 93 % 1008,8 hPa 0,0 l/m N 0,0 km/h (0 Bft)
27.12.2009 01:00 -3,6 C 94 % 1008,8 hPa 0,0 l/m N 0,0 km/h (0 Bft)
27.12.2009 02:00 -3,9 C 93 % 1009,0 hPa 0,0 l/m N 0,8 km/h (0 Bft)
27.12.2009 03:00 -4,1 C 94 % 1009,1 hPa 0,0 l/m N 0,0 km/h (0 Bft)
27.12.2009 04:00 -4,2 C 94 % 1009,1 hPa 0,0 l/m N 0,9 km/h (0 Bft)
27.12.2009 05:00 -4,0 C 95 % 1009,1 hPa 0,0 l/m SW 3,5 km/h (1 Bft)
27.12.2009 06:00 -3,7 C 95 % 1009,3 hPa 0,0 l/m SW 2,0 km/h (1 Bft)
27.12.2009 07:00 -3,7 C 95 % 1010,0 hPa 0,0 l/m SW 2,7 km/h (1 Bft)
27.12.2009 08:00 -3,4 C 96 % 1010,5 hPa 0,0 l/m SW 2,5 km/h (1 Bft)
27.12.2009 09:00 -2,7 C 96 % 1011,0 hPa 0,0 l/m S 4,1 km/h (1 Bft)
27.12.2009 10:00 -1,5 C 93 % 1011,1 hPa 0,0 l/m S 6,8 km/h (2 Bft)
27.12.2009 11:00 -0,3 C 87 % 1010,8 hPa 0,0 l/m S-SW 10,2 km/h (2 Bft)
27.12.2009 12:00 1,2 C 69 % 1010,2 hPa 0,0 l/m SW 20,1 km/h (4 Bft)
27.12.2009 13:00 2,6 C 63 % 1009,8 hPa 0,0 l/m S-SW 19,6 km/h (3 Bft)
27.12.2009 14:00 2,7 C 67 % 1009,3 hPa 0,0 l/m SW 18,8 km/h (3 Bft)
27.12.2009 15:00 2,2 C 70 % 1008,8 hPa 0,0 l/m SW 13,7 km/h (3 Bft)
27.12.2009 16:00 2,4 C 63 % 1008,4 hPa 0,0 l/m W-SW 17,0 km/h (3 Bft)
27.12.2009 17:00 2,1 C 68 % 1008,5 hPa 0,0 l/m SW 19,8 km/h (4 Bft)
27.12.2009 18:00 1,7 C 80 % 1008,8 hPa 0,0 l/m W-SW 25,3 km/h (4 Bft)
27.12.2009 19:00 1,4 C 89 % 1009,3 hPa 0,0 l/m SW 24,1 km/h (4 Bft)
27.12.2009 20:00 1,3 C 91 % 1009,6 hPa 0,0 l/m SW 18,0 km/h (3 Bft)
27.12.2009 21:00 1,2 C 93 % 1009,7 hPa 0,0 l/m S-SW 20,5 km/h (4 Bft)
27.12.2009 22:00 1,4 C 93 % 1009,2 hPa 0,0 l/m SW 21,6 km/h (4 Bft)
27.12.2009 23:00 1,9 C 91 % 1009,4 hPa 1,8 l/m W-SW 23,7 km/h (4 Bft)
Min-Datum _ 27.12.09 27.12.09 24.12.09 - - 21.12.09
_ Min-Zeit 03:55 13:20 23:15 - - 12:30
Minimum _ -4,2 C 55 % 985,0 hPa - - 0,0 km/h (0 Bft)
Max-Datum _ 25.12.09 23.12.09 26.12.09 22.12.09 - 25.12.09
_ Max-Zeit 07:45 04:15 04:10 23:00 - 08:40
Maximum _ 7,3 C 99 % 1012,7 hPa 4,0 l/m - 45,1 km/h
SW (6 Bft)
Durchschnitt _ 1,1 C 91 % 1000,3 hPa #18,2 l/m SW 9,5 km/h (2 Bft)